Time;durP1;ratioP1;P1;durP2;ratioP2;P2;SDS_P1;SDS_P2;PMS_P1;PMS_P2;Temp;Humidity;BMP_temperature;BMP_pressure;BME280_temperature;BME280_humidity;BME280_pressure;Samples;Min_cycle;Max_cycle;Signal;HPM_P1;HPM_P2
2023/10/30 00:02:18;;;;;;;0.93;0.45;;;;;;;10.54;93.33;99855.47;4974151;28;99855;-27
2023/10/30 00:04:43;;;;;;;1.05;0.52;;;;;;;10.55;93.38;99856.34;4975610;28;97249;-28
2023/10/30 00:07:09;;;;;;;2.25;0.70;;;;;;;10.57;93.52;99855.22;4976291;28;96630;-28
2023/10/30 00:09:34;;;;;;;0.32;0.22;;;;;;;10.54;93.60;99854.63;4975791;28;96810;-27
2023/10/30 00:12:00;;;;;;;1.80;0.35;;;;;;;10.52;93.65;99853.88;4975458;28;99224;-27
2023/10/30 00:14:26;;;;;;;0.80;0.57;;;;;;;10.50;93.90;99853.97;4974284;28;101153;-27
2023/10/30 00:16:51;;;;;;;2.45;0.60;;;;;;;10.44;94.12;99851.75;4975961;28;96573;-27
2023/10/30 00:19:17;;;;;;;2.67;0.75;;;;;;;10.47;94.38;99864.19;4975791;28;96775;-27
2023/10/30 00:21:43;;;;;;;0.73;0.38;;;;;;;10.44;94.60;99867.13;4975002;28;97795;-27
2023/10/30 00:24:09;;;;;;;0.55;0.30;;;;;;;10.41;94.72;99882.63;4973876;28;100727;-27
2023/10/30 00:26:35;;;;;;;0.98;0.45;;;;;;;10.39;94.75;99883.72;4975556;28;96525;-27
2023/10/30 00:29:01;;;;;;;2.42;0.60;;;;;;;10.45;95.01;99893.22;4974565;28;96858;-28
2023/10/30 00:31:26;;;;;;;0.47;0.28;;;;;;;10.42;94.96;99886.22;4973719;28;100875;-27
2023/10/30 00:33:53;;;;;;;0.75;0.32;;;;;;;10.37;95.08;99881.16;4975258;28;98249;-27
2023/10/30 00:36:18;;;;;;;1.23;0.52;;;;;;;10.45;95.19;99896.78;4974128;28;96657;-28
2023/10/30 00:38:44;;;;;;;1.33;0.60;;;;;;;10.42;95.24;99899.75;4975869;28;96742;-28
2023/10/30 00:41:10;;;;;;;0.82;0.15;;;;;;;10.35;95.64;99901.19;4975316;28;97381;-27
2023/10/30 00:43:39;;;;;;;0.65;0.35;;;;;;;10.34;95.68;99905.72;4973855;28;99692;-27
2023/10/30 00:46:06;;;;;;;0.30;0.20;;;;;;;10.37;95.89;99912.78;4973210;28;96718;-27
2023/10/30 00:48:33;;;;;;;4.13;0.60;;;;;;;10.39;96.26;99918.91;4975368;28;96704;-27
2023/10/30 00:50:58;;;;;;;2.30;0.50;;;;;;;10.35;96.15;99922.84;4973466;28;101196;-28
2023/10/30 00:53:23;;;;;;;1.80;0.80;;;;;;;10.32;96.12;99926.66;4974976;28;97765;-27
2023/10/30 00:55:50;;;;;;;2.08;0.70;;;;;;;10.30;96.31;99906.09;4975054;28;96496;-27
2023/10/30 00:58:15;;;;;;;0.75;0.35;;;;;;;10.33;96.46;99911.28;4974733;28;96926;-27
2023/10/30 01:00:41;;;;;;;0.30;0.10;;;;;;;10.33;96.24;99905.84;4974984;28;97805;-29
2023/10/30 01:03:06;;;;;;;0.32;0.15;;;;;;;10.35;96.26;99910.16;4975197;28;97385;-27
2023/10/30 01:05:32;;;;;;;2.38;0.47;;;;;;;10.29;96.16;99904.34;4974909;28;96582;-27
2023/10/30 01:07:57;;;;;;;1.75;0.65;;;;;;;10.34;96.39;99918.41;4974922;28;97603;-28
2023/10/30 01:10:22;;;;;;;3.35;0.52;;;;;;;10.28;96.46;99924.25;4974383;28;97871;-28
2023/10/30 01:12:48;;;;;;;0.55;0.28;;;;;;;10.25;96.97;99927.16;4973237;28;101173;-30
2023/10/30 01:15:13;;;;;;;1.70;0.35;;;;;;;10.21;96.77;99930.13;4974719;28;96773;-27
2023/10/30 01:17:39;;;;;;;1.65;0.57;;;;;;;10.18;97.19;99924.94;4975138;28;96818;-28
2023/10/30 01:20:05;;;;;;;2.10;0.70;;;;;;;10.18;97.19;99924.09;4974674;28;97893;-27
2023/10/30 01:22:30;;;;;;;1.60;0.40;;;;;;;10.21;97.07;99927.41;4956873;28;99505;-27
2023/10/30 01:24:56;;;;;;;0.55;0.43;;;;;;;10.20;96.83;99916.69;4974925;28;96580;-27
2023/10/30 01:27:22;;;;;;;2.88;0.35;;;;;;;10.21;96.96;99922.00;4975319;28;96671;-27
2023/10/30 01:29:47;;;;;;;1.50;0.60;;;;;;;10.20;97.33;99927.50;4974418;28;97244;-27
2023/10/30 01:32:12;;;;;;;1.15;0.47;;;;;;;10.18;97.03;99930.34;4974606;28;97919;-27
2023/10/30 01:34:38;;;;;;;0.70;0.32;;;;;;;10.13;96.89;99921.72;4974436;28;96619;-27
2023/10/30 01:37:03;;;;;;;0.68;0.30;;;;;;;10.12;96.95;99916.41;4974900;28;96816;-28
2023/10/30 01:39:29;;;;;;;0.90;0.38;;;;;;;10.14;96.91;99925.28;4974417;28;97780;-27
2023/10/30 01:41:54;;;;;;;0.25;0.17;;;;;;;10.13;96.99;99921.72;4974248;28;99088;-27
2023/10/30 01:44:20;;;;;;;2.40;0.50;;;;;;;10.10;96.92;99921.06;4974628;28;96613;-27
2023/10/30 01:46:45;;;;;;;2.38;0.63;;;;;;;10.10;96.72;99918.38;4973852;28;96856;-27
2023/10/30 01:49:10;;;;;;;0.30;0.20;;;;;;;10.09;96.81;99920.22;4974439;28;98286;-27
2023/10/30 01:51:36;;;;;;;0.17;0.10;;;;;;;10.11;96.61;99923.69;4975045;28;97194;-28
2023/10/30 01:54:02;;;;;;;0.45;0.17;;;;;;;10.16;96.44;99937.72;4974725;28;96811;-27
2023/10/30 01:56:28;;;;;;;0.40;0.28;;;;;;;10.15;96.36;99945.94;4976712;28;96879;-28
2023/10/30 01:58:53;;;;;;;5.10;0.38;;;;;;;10.10;96.16;99946.28;4976609;28;99449;-27
2023/10/30 02:01:20;;;;;;;1.55;0.22;;;;;;;10.09;96.43;99941.88;4977779;28;97316;-29
2023/10/30 02:03:45;;;;;;;0.93;0.52;;;;;;;10.08;96.15;99950.97;4976527;28;96751;-27
2023/10/30 02:06:11;;;;;;;0.32;0.20;;;;;;;10.05;96.22;99940.34;4977598;28;96864;-28
2023/10/30 02:08:36;;;;;;;1.25;0.32;;;;;;;9.97;96.10;99931.94;4977465;28;98857;-28
2023/10/30 02:11:02;;;;;;;9.15;0.90;;;;;;;10.05;96.27;99936.78;4977517;28;98354;-27
2023/10/30 02:13:27;;;;;;;0.68;0.35;;;;;;;10.06;96.14;99931.28;4976154;28;96760;-28
2023/10/30 02:15:53;;;;;;;1.40;0.25;;;;;;;10.05;95.96;99932.25;4977934;28;96750;-28
2023/10/30 02:18:18;;;;;;;0.85;0.57;;;;;;;10.06;96.17;99946.63;4977461;28;97890;-27
2023/10/30 02:20:46;;;;;;;1.30;0.40;;;;;;;10.05;96.14;99939.50;4977353;28;97904;-27
2023/10/30 02:23:11;;;;;;;1.33;0.55;;;;;;;10.08;96.00;99950.09;4975640;28;96576;-27
2023/10/30 02:25:36;;;;;;;0.35;0.28;;;;;;;10.06;96.12;99958.34;4977513;28;96884;-28
2023/10/30 02:28:02;;;;;;;2.25;0.93;;;;;;;10.06;96.04;99952.03;4977141;28;97294;-27
2023/10/30 02:30:28;;;;;;;3.15;0.43;;;;;;;10.04;96.03;99944.06;4977159;28;97274;-27
2023/10/30 02:32:53;;;;;;;4.15;0.98;;;;;;;10.07;96.11;99951.06;4977389;28;96586;-27
2023/10/30 02:35:19;;;;;;;1.55;0.63;;;;;;;10.06;96.04;99950.22;4977235;28;97157;-27
2023/10/30 02:37:45;;;;;;;0.57;0.28;;;;;;;10.01;96.25;99947.00;4977191;28;97287;-28
2023/10/30 02:40:11;;;;;;;1.20;0.28;;;;;;;10.00;96.40;99956.06;4975921;28;101115;-27
2023/10/30 02:42:37;;;;;;;4.20;0.85;;;;;;;9.99;96.38;99952.50;4975923;28;96720;-27
2023/10/30 02:45:06;;;;;;;3.50;0.63;;;;;;;10.00;96.20;99962.34;4977097;28;96932;-28
2023/10/30 02:47:32;;;;;;;5.15;0.57;;;;;;;9.96;96.59;99954.56;4974415;28;101295;-28
2023/10/30 02:49:58;;;;;;;1.85;0.38;;;;;;;10.00;96.51;99965.03;4976749;28;98843;-27
2023/10/30 02:52:23;;;;;;;0.22;0.15;;;;;;;10.00;96.43;99965.03;4977139;28;96774;-27
2023/10/30 02:54:49;;;;;;;0.65;0.22;;;;;;;10.08;96.11;99986.16;4976919;28;96590;-27
2023/10/30 02:57:14;;;;;;;2.35;1.40;;;;;;;10.09;96.10;99984.31;4976696;28;97900;-27
2023/10/30 02:59:40;;;;;;;0.30;0.30;;;;;;;10.07;96.05;99983.53;4976625;28;97328;-29
2023/10/30 03:02:06;;;;;;;1.08;0.28;;;;;;;10.04;96.05;99979.22;4975651;28;96730;-27
2023/10/30 03:04:32;;;;;;;1.92;0.45;;;;;;;10.08;95.88;99986.16;4977282;28;96753;-27
2023/10/30 03:06:58;;;;;;;0.88;0.40;;;;;;;10.09;95.84;99974.34;4975314;28;99323;-28
2023/10/30 03:09:25;;;;;;;1.73;0.60;;;;;;;10.08;95.92;99972.63;4975100;28;100800;-27
2023/10/30 03:11:50;;;;;;;1.35;0.32;;;;;;;10.08;95.92;99974.44;4976484;28;96597;-29
2023/10/30 03:14:16;;;;;;;2.47;0.57;;;;;;;10.04;95.99;99971.09;4976523;28;96799;-27
2023/10/30 03:16:41;;;;;;;1.65;0.40;;;;;;;10.05;95.92;99983.66;4975062;28;99671;-28
2023/10/30 03:19:06;;;;;;;5.75;0.52;;;;;;;10.04;95.97;99981.06;4976442;28;97785;-27
2023/10/30 03:21:32;;;;;;;0.28;0.13;;;;;;;10.00;96.26;99985.81;4976669;28;96525;-28
2023/10/30 03:23:57;;;;;;;0.17;0.10;;;;;;;10.04;95.95;99984.63;4976643;28;96777;-27
2023/10/30 03:26:24;;;;;;;2.30;0.60;;;;;;;10.02;95.91;99986.59;4975970;28;97949;-28
2023/10/30 03:28:50;;;;;;;5.40;0.45;;;;;;;10.00;96.33;99981.28;4976439;28;99559;-27
2023/10/30 03:31:15;;;;;;;0.57;0.15;;;;;;;9.94;96.77;99970.91;4976604;28;96644;-28
2023/10/30 03:33:40;;;;;;;1.48;0.43;;;;;;;9.95;96.78;99972.63;4976576;28;96736;-27
2023/10/30 03:36:06;;;;;;;0.38;0.30;;;;;;;9.96;96.60;99966.25;4975301;28;98799;-27
2023/10/30 03:38:31;;;;;;;2.10;0.47;;;;;;;9.93;97.16;99962.91;4975905;28;99264;-27
2023/10/30 03:40:57;;;;;;;1.17;0.30;;;;;;;9.90;96.74;99955.03;4976271;28;96680;-28
2023/10/30 03:43:22;;;;;;;4.03;0.50;;;;;;;9.95;97.29;99969.94;4976743;28;96783;-27
2023/10/30 03:45:47;;;;;;;0.20;0.13;;;;;;;9.97;97.19;99969.81;4975879;28;99696;-28
2023/10/30 03:48:13;;;;;;;1.08;0.38;;;;;;;9.95;97.29;99967.22;4975521;28;97769;-27
2023/10/30 03:50:38;;;;;;;1.05;0.20;;;;;;;9.96;97.33;99963.56;4976430;28;96462;-27
2023/10/30 03:53:03;;;;;;;0.80;0.28;;;;;;;9.89;97.82;99961.38;4976605;28;96794;-27
2023/10/30 03:55:29;;;;;;;3.30;0.75;;;;;;;9.93;97.53;99968.31;4975333;28;99158;-27
2023/10/30 03:57:54;;;;;;;0.10;0.08;;;;;;;9.97;97.40;99973.38;4975698;28;101019;-27
2023/10/30 04:00:20;;;;;;;1.38;0.32;;;;;;;9.96;97.22;99968.09;4974494;28;96523;-27
2023/10/30 04:02:45;;;;;;;2.97;0.43;;;;;;;9.97;97.63;99981.50;4975945;28;96743;-27
2023/10/30 04:05:11;;;;;;;1.75;0.60;;;;;;;9.94;97.82;99987.16;4975818;28;97897;-27
2023/10/30 04:07:36;;;;;;;4.53;0.73;;;;;;;9.94;97.93;99992.56;4975565;28;99051;-28
2023/10/30 04:10:02;;;;;;;3.90;0.45;;;;;;;9.95;97.82;99988.00;4975556;28;96692;-27
2023/10/30 04:12:27;;;;;;;2.03;0.35;;;;;;;9.96;98.10;99973.50;4976146;28;96732;-27
2023/10/30 04:14:52;;;;;;;0.47;0.35;;;;;;;10.00;97.78;99977.72;4975646;28;97400;-27
2023/10/30 04:17:18;;;;;;;1.35;0.52;;;;;;;9.97;98.08;99978.81;4975637;28;97792;-27
2023/10/30 04:19:44;;;;;;;2.40;0.63;;;;;;;10.00;97.79;99983.13;4974484;28;96527;-27
2023/10/30 04:22:09;;;;;;;1.17;0.35;;;;;;;9.99;97.93;99978.69;4975972;28;96720;-27
2023/10/30 04:24:34;;;;;;;4.57;0.40;;;;;;;9.97;97.79;99975.25;4974752;28;97822;-27
2023/10/30 04:27:00;;;;;;;1.92;0.60;;;;;;;9.95;98.05;99975.34;4975438;28;97948;-29
2023/10/30 04:29:26;;;;;;;2.08;0.45;;;;;;;9.96;98.09;99962.66;4975785;28;96486;-27
2023/10/30 04:31:51;;;;;;;0.22;0.15;;;;;;;9.96;98.14;99951.84;4975697;28;96714;-27
2023/10/30 04:34:18;;;;;;;1.85;0.60;;;;;;;9.98;98.34;99968.84;4974984;28;99185;-27
2023/10/30 04:36:43;;;;;;;1.85;0.52;;;;;;;9.98;98.01;99961.56;4975235;28;97315;-28
2023/10/30 04:39:10;;;;;;;1.83;0.30;;;;;;;9.95;98.27;99964.53;4975470;28;96509;-27
2023/10/30 04:41:36;;;;;;;2.95;0.45;;;;;;;9.90;98.59;99952.31;4975786;28;96752;-27
2023/10/30 04:44:02;;;;;;;0.77;0.38;;;;;;;9.97;98.60;99956.31;4975223;28;97908;-28
2023/10/30 04:46:27;;;;;;;6.55;0.55;;;;;;;10.00;98.50;99977.72;4973009;28;100994;-28
2023/10/30 04:48:53;;;;;;;0.38;0.28;;;;;;;10.00;98.79;99973.16;4975139;28;96464;-27
2023/10/30 04:51:18;;;;;;;3.05;0.38;;;;;;;10.00;98.88;99972.28;4975523;28;96468;-27
2023/10/30 04:53:43;;;;;;;1.40;0.40;;;;;;;9.99;98.39;99957.06;4975043;28;97367;-27
2023/10/30 04:56:09;;;;;;;1.50;0.45;;;;;;;9.99;98.69;99965.19;4974726;28;98007;-27
2023/10/30 04:58:35;;;;;;;3.22;0.22;;;;;;;10.03;98.82;99969.34;4974847;28;96881;-27
2023/10/30 05:01:05;;;;;;;1.73;0.55;;;;;;;10.04;98.88;99979.22;4975491;28;96767;-27
2023/10/30 05:03:31;;;;;;;0.77;0.40;;;;;;;10.04;99.24;99979.22;4973394;28;100668;-27
2023/10/30 05:06:01;;;;;;;1.00;0.57;;;;;;;10.00;99.34;99961.47;4973850;28;101387;-27
2023/10/30 05:08:27;;;;;;;2.75;0.68;;;;;;;10.04;99.12;99984.63;4973744;28;96756;-27
2023/10/30 05:10:52;;;;;;;1.90;0.50;;;;;;;10.03;99.03;99982.03;4975263;28;96812;-27
2023/10/30 05:13:18;;;;;;;1.70;0.20;;;;;;;10.04;98.98;99976.53;4974061;28;99177;-27
2023/10/30 05:15:43;;;;;;;0.30;0.17;;;;;;;9.99;99.47;99971.44;4974796;28;97786;-27
2023/10/30 05:18:08;;;;;;;2.20;0.35;;;;;;;9.99;99.63;99963.31;4974752;28;96481;-27
2023/10/30 05:20:34;;;;;;;2.08;0.55;;;;;;;9.96;99.50;99968.09;4974953;28;96794;-27
2023/10/30 05:22:59;;;;;;;0.70;0.40;;;;;;;9.99;99.55;99973.28;4974459;28;98135;-27
2023/10/30 05:25:25;;;;;;;2.38;0.32;;;;;;;10.01;99.65;99987.56;4974726;28;97327;-27
2023/10/30 05:27:51;;;;;;;2.60;0.40;;;;;;;10.02;99.78;99983.88;4975063;28;96671;-28
2023/10/30 05:30:16;;;;;;;0.75;0.38;;;;;;;9.97;99.69;99986.06;4977161;28;96520;-27
2023/10/30 05:32:41;;;;;;;3.78;1.05;;;;;;;9.95;99.42;99982.59;4978097;28;97823;-28
2023/10/30 05:35:07;;;;;;;0.88;0.28;;;;;;;9.93;99.74;99973.72;4977981;28;97598;-29
2023/10/30 05:37:32;;;;;;;1.48;0.52;;;;;;;9.92;99.34;99967.47;4977478;28;96631;-27
2023/10/30 05:39:58;;;;;;;0.95;0.47;;;;;;;9.93;99.82;99962.91;4978149;28;96800;-28
2023/10/30 05:42:23;;;;;;;4.13;0.47;;;;;;;9.94;100.00;99970.06;4977971;28;97411;-27
2023/10/30 05:44:48;;;;;;;2.03;0.68;;;;;;;9.93;100.00;99969.16;4977901;28;97714;-27
2023/10/30 05:47:14;;;;;;;0.13;0.10;;;;;;;9.92;100.00;99966.59;4977490;28;96846;-27
2023/10/30 05:49:39;;;;;;;1.35;0.35;;;;;;;9.92;100.00;99958.50;4978158;28;96751;-27
2023/10/30 05:52:04;;;;;;;1.10;0.40;;;;;;;9.90;100.00;99945.06;4977478;28;99299;-28
2023/10/30 05:54:30;;;;;;;1.42;0.50;;;;;;;9.93;100.00;99962.91;4977910;28;99659;-28
2023/10/30 05:56:55;;;;;;;0.35;0.22;;;;;;;9.93;100.00;99971.03;4977796;28;96614;-27
2023/10/30 05:59:21;;;;;;;2.42;0.50;;;;;;;9.91;100.00;99981.94;4978065;28;96825;-27
2023/10/30 06:01:47;;;;;;;2.58;0.40;;;;;;;9.91;100.00;99983.78;4975735;28;101172;-27
2023/10/30 06:04:13;;;;;;;1.27;0.57;;;;;;;9.90;100.00;99988.34;4977753;28;97849;-28
2023/10/30 06:06:38;;;;;;;1.10;0.45;;;;;;;9.86;100.00;99984.13;4977870;28;96676;-28
2023/10/30 06:09:04;;;;;;;4.28;0.47;;;;;;;9.86;100.00;99980.56;4977557;28;96674;-28
2023/10/30 06:11:29;;;;;;;3.33;0.70;;;;;;;9.89;100.00;99993.84;4977566;28;97459;-27
2023/10/30 06:13:54;;;;;;;1.33;0.55;;;;;;;9.91;100.00;100002.72;4977266;28;99012;-28
2023/10/30 06:16:20;;;;;;;1.50;0.73;;;;;;;9.85;100.00;99998.63;4977815;28;96501;-27
2023/10/30 06:18:46;;;;;;;3.63;0.55;;;;;;;9.92;100.00;100009.88;4978260;28;96790;-29
2023/10/30 06:21:18;;;;;;;1.25;0.57;;;;;;;9.89;100.00;99993.84;4977094;28;99340;-28
2023/10/30 06:23:43;;;;;;;1.48;0.57;;;;;;;9.92;100.00;99999.06;4975965;28;100656;-27
2023/10/30 06:26:10;;;;;;;1.15;0.40;;;;;;;9.92;100.00;100005.31;4976898;28;96579;-28
2023/10/30 06:28:39;;;;;;;2.53;0.60;;;;;;;9.89;100.00;100010.09;4976080;28;96912;-27
2023/10/30 06:31:15;;;;;;;1.70;0.73;;;;;;;9.88;100.00;100009.22;4975673;28;101208;-27
2023/10/30 06:33:41;;;;;;;2.47;0.63;;;;;;;9.86;100.00;99999.50;4975783;28;100807;-27
2023/10/30 06:36:07;;;;;;;1.77;0.40;;;;;;;9.88;100.00;100011.94;4976978;28;96673;-27
2023/10/30 06:38:33;;;;;;;2.13;0.60;;;;;;;9.84;100.00;99998.72;4977716;28;96814;-27
2023/10/30 06:40:58;;;;;;;2.75;0.98;;;;;;;9.93;100.00;100014.31;4975536;28;100647;-27
2023/10/30 06:43:24;;;;;;;1.80;0.50;;;;;;;9.89;100.00;100005.56;4977349;28;97788;-27
2023/10/30 06:45:49;;;;;;;2.67;0.38;;;;;;;9.91;100.00;100019.81;4977351;28;96660;-27
2023/10/30 06:48:14;;;;;;;0.93;0.57;;;;;;;9.92;100.00;100020.69;4976803;28;96846;-27
2023/10/30 06:50:40;;;;;;;5.32;0.73;;;;;;;9.90;100.00;100019.94;4976432;28;97447;-28
2023/10/30 06:53:05;;;;;;;1.85;0.60;;;;;;;9.93;100.00;100020.56;4976992;28;97874;-27
2023/10/30 06:55:32;;;;;;;1.95;0.60;;;;;;;9.89;100.00;100018.19;4977259;28;96595;-28
2023/10/30 06:57:57;;;;;;;5.90;0.73;;;;;;;9.94;100.00;100024.16;4976847;28;96840;-27
2023/10/30 07:00:23;;;;;;;1.98;0.43;;;;;;;9.94;100.00;100027.72;4976750;28;98098;-27
2023/10/30 07:02:48;;;;;;;1.73;0.80;;;;;;;9.96;100.00;100023.06;4975143;28;101012;-32
2023/10/30 07:05:14;;;;;;;1.60;0.57;;;;;;;9.97;100.00;100021.22;4976738;28;96573;-28
2023/10/30 07:07:39;;;;;;;1.27;0.65;;;;;;;9.99;100.00;100022.00;4977190;28;96875;-28
2023/10/30 07:10:05;;;;;;;4.60;0.32;;;;;;;10.02;100.00;100032.56;4976306;28;99127;-28
2023/10/30 07:12:31;;;;;;;2.72;0.40;;;;;;;10.07;100.00;100040.38;4974936;28;102534;-27
2023/10/30 07:14:56;;;;;;;1.25;0.30;;;;;;;10.06;100.00;100033.19;4976232;28;96682;-27
2023/10/30 07:17:21;;;;;;;1.63;0.80;;;;;;;10.08;100.00;100032.16;4976527;28;96892;-27
2023/10/30 07:19:48;;;;;;;1.40;0.60;;;;;;;10.12;100.00;100028.22;4976331;28;97697;-27
2023/10/30 07:22:13;;;;;;;0.70;0.40;;;;;;;10.17;100.00;100034.16;4976063;28;99144;-27
2023/10/30 07:24:39;;;;;;;0.90;0.55;;;;;;;10.17;100.00;100028.75;4976428;28;96621;-27
2023/10/30 07:27:05;;;;;;;0.73;0.60;;;;;;;10.28;100.00;100048.75;4976027;28;96879;-27
2023/10/30 07:29:31;;;;;;;2.13;0.68;;;;;;;10.35;100.00;100050.94;4975318;28;99591;-27
2023/10/30 07:31:56;;;;;;;1.48;0.50;;;;;;;10.40;100.00;100053.31;4975664;28;99070;-27
2023/10/30 07:34:22;;;;;;;0.68;0.57;;;;;;;10.43;100.00;100060.34;4975727;28;96846;-28
2023/10/30 07:36:47;;;;;;;1.30;0.60;;;;;;;10.42;100.00;100064.88;4974838;28;96976;-30
2023/10/30 07:39:13;;;;;;;0.55;0.30;;;;;;;10.47;100.00;100086.22;4973797;28;101036;-27
2023/10/30 07:41:39;;;;;;;1.77;0.57;;;;;;;10.50;100.00;100088.69;4976009;28;97837;-28
2023/10/30 07:44:05;;;;;;;5.18;0.73;;;;;;;10.48;100.00;100094.19;4976087;28;96666;-27
2023/10/30 07:46:30;;;;;;;3.50;0.60;;;;;;;10.53;100.00;100094.72;4974075;28;96899;-27
2023/10/30 07:48:55;;;;;;;1.58;0.65;;;;;;;10.50;100.00;100084.13;4974914;28;97393;-32
2023/10/30 07:51:21;;;;;;;3.10;0.80;;;;;;;10.56;100.00;100080.97;4973645;28;97994;-34
2023/10/30 07:53:46;;;;;;;1.13;0.50;;;;;;;10.61;100.00;100084.22;4973504;28;97050;-28
2023/10/30 07:56:11;;;;;;;2.22;0.75;;;;;;;10.61;100.00;100070.66;4974510;28;97303;-31
2023/10/30 07:58:37;;;;;;;2.05;0.75;;;;;;;10.66;100.00;100070.31;4973296;28;99482;-29
2023/10/30 08:01:03;;;;;;;4.25;0.60;;;;;;;10.72;100.00;100064.44;4973778;28;97730;-28
2023/10/30 08:03:28;;;;;;;0.65;0.50;;;;;;;10.73;100.00;100044.50;4971719;28;97277;-30
2023/10/30 08:05:58;;;;;;;1.75;0.55;;;;;;;10.70;100.00;100027.63;4973867;28;96943;-28
2023/10/30 08:08:23;;;;;;;5.43;0.70;;;;;;;10.82;100.00;100033.00;4973567;28;101118;-28
2023/10/30 08:10:48;;;;;;;0.20;0.20;;;;;;;10.84;100.00;100031.03;4975476;28;99878;-27
2023/10/30 08:13:14;;;;;;;1.98;0.80;;;;;;;10.79;100.00;100024.22;4975848;28;96553;-27
2023/10/30 08:15:39;;;;;;;4.65;0.90;;;;;;;10.88;100.00;100044.34;4974357;28;96902;-28
2023/10/30 08:18:05;;;;;;;2.90;1.10;;;;;;;10.86;100.00;100030.91;4975417;28;98121;-28
2023/10/30 08:20:31;;;;;;;1.85;0.80;;;;;;;10.83;100.00;100032.00;4975970;28;97395;-28
2023/10/30 08:22:56;;;;;;;1.25;0.47;;;;;;;10.90;100.00;100040.53;4975702;28;96743;-27
2023/10/30 08:25:22;;;;;;;2.80;0.60;;;;;;;10.88;100.00;100053.31;4975588;28;96926;-28
2023/10/30 08:27:47;;;;;;;3.72;0.70;;;;;;;10.93;100.00;100050.25;4974910;28;97339;-27
2023/10/30 08:30:13;;;;;;;0.52;0.22;;;;;;;10.96;100.00;100061.72;4975187;28;98945;-28
2023/10/30 08:32:39;;;;;;;1.17;0.70;;;;;;;10.98;100.00;100065.19;4973990;28;96780;-27
2023/10/30 08:35:05;;;;;;;3.35;0.95;;;;;;;10.94;100.00;100057.41;4975568;28;96614;-27
2023/10/30 08:37:30;;;;;;;4.60;0.75;;;;;;;10.98;100.00;100064.31;4973698;28;102253;-28
2023/10/30 08:39:56;;;;;;;3.13;0.80;;;;;;;11.05;100.00;100079.13;4975185;28;97858;-27
2023/10/30 08:42:21;;;;;;;1.40;0.45;;;;;;;11.04;100.00;100075.56;4975654;28;96591;-27
2023/10/30 08:44:47;;;;;;;3.42;0.68;;;;;;;11.08;100.00;100087.03;4975866;28;96712;-27
2023/10/30 08:47:14;;;;;;;2.40;0.80;;;;;;;11.08;100.00;100091.59;4974445;28;98103;-27
2023/10/30 08:49:39;;;;;;;1.80;0.65;;;;;;;11.07;100.00;100079.88;4973507;28;101243;-28
2023/10/30 08:52:05;;;;;;;0.40;0.25;;;;;;;11.09;100.00;100074.38;4974857;28;96635;-27
2023/10/30 08:54:31;;;;;;;4.28;0.80;;;;;;;11.06;100.00;100056.50;4973866;28;96829;-27
2023/10/30 08:56:56;;;;;;;1.42;0.63;;;;;;;11.08;100.00;100072.63;4974767;28;99216;-27
2023/10/30 08:59:21;;;;;;;0.55;0.28;;;;;;;11.04;100.00;100072.84;4974876;28;97343;-27
2023/10/30 09:01:47;;;;;;;1.23;0.47;;;;;;;11.07;100.00;100093.44;4975081;28;96695;-28
2023/10/30 09:04:12;;;;;;;2.92;0.73;;;;;;;11.11;100.00;100102.19;4974269;28;96824;-27
2023/10/30 09:06:37;;;;;;;2.38;0.93;;;;;;;11.03;100.00;100102.78;4973569;28;97824;-27
2023/10/30 09:09:03;;;;;;;0.80;0.52;;;;;;;11.14;100.00;100115.53;4975050;28;99459;-27
2023/10/30 09:11:28;;;;;;;1.75;1.02;;;;;;;11.17;100.00;100096.31;4974995;28;96754;-27
2023/10/30 09:13:54;;;;;;;3.72;0.88;;;;;;;11.16;100.00;100094.59;4975166;28;96739;-27
2023/10/30 09:16:19;;;;;;;4.78;1.00;;;;;;;11.16;100.00;100089.19;4974126;28;97530;-27
2023/10/30 09:18:44;;;;;;;4.25;1.10;;;;;;;11.18;100.00;100085.38;4974626;28;99240;-27
2023/10/30 09:21:10;;;;;;;5.05;0.93;;;;;;;11.18;100.00;100082.66;4975060;28;96513;-27
2023/10/30 09:23:35;;;;;;;3.80;0.70;;;;;;;11.21;100.00;100093.25;4974731;28;96956;-27
2023/10/30 09:26:02;;;;;;;2.63;0.80;;;;;;;11.25;100.00;100089.34;4974574;28;98981;-28
2023/10/30 09:28:27;;;;;;;5.72;0.98;;;;;;;11.29;100.00;100083.66;4974721;28;97901;-27
2023/10/30 09:30:52;;;;;;;2.92;0.65;;;;;;;11.28;100.00;100077.38;4974487;28;97179;-27
2023/10/30 09:33:18;;;;;;;2.42;0.68;;;;;;;11.32;100.00;100078.88;4975167;28;96892;-28
2023/10/30 09:35:43;;;;;;;1.88;0.63;;;;;;;11.31;100.00;100074.44;4974628;28;97408;-27
2023/10/30 09:38:09;;;;;;;2.60;0.77;;;;;;;11.32;100.00;100067.16;4974594;28;97900;-28
2023/10/30 09:40:34;;;;;;;0.95;0.50;;;;;;;11.32;100.00;100068.03;4972780;28;96579;-28
2023/10/30 09:43:04;;;;;;;1.33;0.40;;;;;;;11.34;100.00;100074.19;4973316;28;96904;-27
2023/10/30 09:45:29;;;;;;;4.25;1.13;;;;;;;11.35;100.00;100069.66;4972676;28;100910;-27
2023/10/30 09:47:56;;;;;;;1.77;0.55;;;;;;;11.39;100.00;100079.25;4973894;28;97831;-27
2023/10/30 09:50:23;;;;;;;2.88;0.88;;;;;;;11.42;100.00;100073.63;4974403;28;96639;-28
2023/10/30 09:52:54;;;;;;;0.60;0.40;;;;;;;11.40;100.00;100072.88;4973387;28;96843;-27
2023/10/30 09:55:24;;;;;;;7.57;0.82;;;;;;;11.46;100.00;100078.69;4972904;28;99417;-28
2023/10/30 09:57:52;;;;;;;0.80;0.30;;;;;;;11.50;100.00;100064.88;4972901;28;101600;-28
2023/10/30 10:00:18;;;;;;;0.98;0.70;;;;;;;11.56;100.00;100062.56;4973254;28;96688;-28
2023/10/30 10:02:44;;;;;;;1.13;0.45;;;;;;;11.59;100.00;100043.31;4974371;28;96876;-27
2023/10/30 10:05:13;;;;;;;0.95;0.50;;;;;;;11.70;100.00;100047.88;4973668;28;99395;-27
2023/10/30 10:07:39;;;;;;;1.00;0.55;;;;;;;11.74;100.00;100052.09;4974053;28;99877;-29
2023/10/30 10:10:08;;;;;;;2.25;0.52;;;;;;;11.74;100.00;100035.81;4973145;28;96652;-27
2023/10/30 10:12:34;;;;;;;2.35;0.50;;;;;;;11.81;100.00;100047.03;4972675;28;96978;-27
2023/10/30 10:15:06;;;;;;;5.00;0.95;;;;;;;11.90;100.00;100051.78;4973753;28;98873;-28
2023/10/30 10:17:45;;;;;;;1.45;0.63;;;;;;;11.95;100.00;100054.13;4976124;28;101644;-27
2023/10/30 10:20:11;;;;;;;2.92;0.43;;;;;;;11.99;100.00;100061.00;4978024;28;96584;-27
2023/10/30 10:22:37;;;;;;;1.13;0.45;;;;;;;11.98;100.00;100051.16;4976594;28;96998;-27
2023/10/30 10:25:04;;;;;;;2.15;0.63;;;;;;;11.96;100.00;100050.41;4975869;28;101085;-28
2023/10/30 10:27:29;;;;;;;0.47;0.45;;;;;;;11.96;100.00;100028.69;4975753;28;100107;-28
2023/10/30 10:29:56;;;;;;;2.53;0.50;;;;;;;12.05;100.00;100033.38;4976947;28;96521;-27
2023/10/30 10:32:26;;;;;;;1.58;0.85;;;;;;;12.07;100.00;100036.84;4976095;28;96931;-27
2023/10/30 10:34:52;;;;;;;1.42;0.40;;;;;;;12.04;100.00;100026.25;4975631;28;101072;-27
2023/10/30 10:37:18;;;;;;;4.30;0.52;;;;;;;12.03;100.00;100025.34;4975706;28;100778;-28
2023/10/30 10:39:48;;;;;;;5.80;0.60;;;;;;;12.09;100.00;100048.44;4975956;28;96731;-27
2023/10/30 10:42:17;;;;;;;3.35;0.73;;;;;;;12.13;100.00;100052.59;4976018;28;97336;-27
2023/10/30 10:44:44;;;;;;;5.32;0.82;;;;;;;12.06;100.00;100046.84;4975454;28;101123;-27
2023/10/30 10:47:10;;;;;;;2.58;0.73;;;;;;;12.04;100.00;100043.38;4975317;28;101049;-28
2023/10/30 10:49:35;;;;;;;2.75;0.65;;;;;;;12.06;100.00;100045.94;4977141;28;96481;-27
2023/10/30 10:52:04;;;;;;;5.95;0.70;;;;;;;12.11;100.00;100054.63;4977337;28;96442;-28
2023/10/30 10:54:35;;;;;;;1.02;0.45;;;;;;;12.13;100.00;100058.03;4974784;28;101238;-28
2023/10/30 10:57:04;;;;;;;3.07;0.73;;;;;;;12.14;100.00;100053.50;4975555;28;101327;-27
2023/10/30 10:59:30;;;;;;;3.63;0.45;;;;;;;12.16;100.00;100051.53;4975464;28;96734;-28
2023/10/30 11:01:59;;;;;;;3.45;0.88;;;;;;;12.22;100.00;100067.31;4975572;28;96667;-28
2023/10/30 11:04:25;;;;;;;2.28;0.82;;;;;;;12.18;100.00;100061.28;4975268;28;101042;-27
2023/10/30 11:06:56;;;;;;;2.60;0.85;;;;;;;12.23;100.00;100058.19;4976243;28;99427;-27
2023/10/30 11:09:28;;;;;;;0.40;0.40;;;;;;;12.20;100.00;100048.41;4975638;28;96702;-27
2023/10/30 11:12:12;;;;;;;6.85;0.98;;;;;;;12.28;100.00;100053.25;4975777;28;96816;-27
2023/10/30 11:15:06;;;;;;;4.03;0.50;;;;;;;12.30;100.00;100034.97;4976269;28;99394;-27
2023/10/30 11:17:31;;;;;;;1.63;0.65;;;;;;;12.33;100.00;100041.00;4976591;28;97350;-28
2023/10/30 11:20:06;;;;;;;1.73;0.82;;;;;;;12.29;100.00;100025.94;4976262;28;96594;-27
2023/10/30 11:22:39;;;;;;;1.70;0.98;;;;;;;12.40;100.00;100037.78;4975042;28;96951;-28